Time;durP1;ratioP1;P1;durP2;ratioP2;P2;SDS_P1;SDS_P2;PMS_P1;PMS_P2;Temp;Humidity;BMP_temperature;BMP_pressure;BME280_temperature;BME280_humidity;BME280_pressure;Samples;Min_cycle;Max_cycle;Signal;HPM_P1;HPM_P2
2021/05/13 00:00:09;;;;;;;15.93;13.60;;;;;;;13.86;80.62;93900.72;2981532;39;20055;-83
2021/05/13 00:02:11;;;;;;;14.77;12.55;;;;;;;14.09;79.74;93905.66;2975990;39;20420;-86
2021/05/13 00:04:13;;;;;;;15.65;12.75;;;;;;;14.28;78.42;93898.78;2977135;39;20047;-83
2021/05/13 00:06:14;;;;;;;19.95;13.65;;;;;;;14.42;77.28;93902.22;2970014;39;20096;-83
2021/05/13 00:08:16;;;;;;;17.80;13.45;;;;;;;14.52;77.17;93905.28;2979239;39;20117;-83
2021/05/13 00:10:20;;;;;;;18.25;13.13;;;;;;;14.63;76.80;93913.63;2978090;39;20326;-83
2021/05/13 00:12:38;;;;;;;17.42;13.75;;;;;;;14.68;76.28;93908.56;2982370;39;20046;-82
2021/05/13 00:14:39;;;;;;;16.98;13.82;;;;;;;14.73;75.79;93906.09;2968978;40;20096;-82
2021/05/13 00:16:44;;;;;;;17.50;14.25;;;;;;;14.74;75.49;93913.03;2970429;39;20092;-70
2021/05/13 00:18:46;;;;;;;16.45;14.18;;;;;;;14.72;75.77;93907.94;2970444;39;20056;-73
2021/05/13 00:20:48;;;;;;;18.98;13.80;;;;;;;14.72;75.48;93900.03;2975200;39;20060;-70
2021/05/13 00:22:50;;;;;;;20.00;14.45;;;;;;;14.68;75.73;93901.44;2967331;39;20325;-70
2021/05/13 00:24:52;;;;;;;17.75;14.23;;;;;;;14.67;75.76;93905.13;2968340;39;20079;-71
2021/05/13 00:26:58;;;;;;;19.20;14.60;;;;;;;14.73;75.13;93906.94;2966176;40;20440;-69
2021/05/13 00:29:05;;;;;;;20.42;14.20;;;;;;;14.73;75.34;93901.66;2967032;40;20043;-71
2021/05/13 00:31:06;;;;;;;22.40;14.77;;;;;;;14.74;74.71;93902.47;2968412;39;20141;-70
2021/05/13 00:33:08;;;;;;;20.23;14.77;;;;;;;14.72;74.95;93901.88;2970283;39;20075;-72
2021/05/13 00:35:13;;;;;;;17.95;13.45;;;;;;;14.72;74.79;93902.66;2968972;39;20052;-72
2021/05/13 00:37:15;;;;;;;18.10;14.93;;;;;;;14.74;75.15;93903.28;2970951;39;20435;-70
2021/05/13 00:39:16;;;;;;;20.17;15.02;;;;;;;14.61;75.10;93903.28;2959441;40;20048;-70
2021/05/13 00:41:18;;;;;;;20.60;15.00;;;;;;;14.58;75.35;93906.31;2969237;39;20115;-70
2021/05/13 00:43:20;;;;;;;19.80;15.25;;;;;;;14.56;75.62;93905.69;2966935;40;20085;-69
2021/05/13 00:45:22;;;;;;;22.30;16.20;;;;;;;14.31;76.46;93908.91;2969183;39;20048;-72
2021/05/13 00:47:25;;;;;;;20.40;15.70;;;;;;;14.36;76.25;93910.94;2972705;39;20109;-72
2021/05/13 00:49:27;;;;;;;22.33;15.07;;;;;;;14.43;75.77;93913.56;2974333;39;20060;-72
2021/05/13 00:51:30;;;;;;;19.10;14.35;;;;;;;14.49;75.71;93904.88;2970241;39;20059;-70
2021/05/13 00:53:32;;;;;;;21.90;14.80;;;;;;;14.55;75.43;93906.72;2966036;40;20050;-70
2021/05/13 00:55:34;;;;;;;20.63;15.40;;;;;;;14.65;74.88;93908.97;2968934;39;20059;-69
2021/05/13 00:57:36;;;;;;;18.23;14.50;;;;;;;14.69;75.12;93911.00;2969190;39;20092;-71
2021/05/13 00:59:40;;;;;;;18.35;14.88;;;;;;;14.73;74.13;93906.94;2968838;39;20071;-70
2021/05/13 01:03:50;;;;;;;19.13;14.73;;;;;;;14.73;74.23;93898.19;2967002;40;20056;-70
2021/05/13 01:05:51;;;;;;;23.70;16.27;;;;;;;14.81;73.97;93911.19;2971138;39;20078;-69
2021/05/13 01:07:55;;;;;;;21.25;15.05;;;;;;;14.80;74.00;93904.28;2972208;39;20040;-69
2021/05/13 01:09:57;;;;;;;19.38;14.45;;;;;;;14.86;73.52;93906.13;2971019;39;20060;-71
2021/05/13 01:12:14;;;;;;;19.10;15.10;;;;;;;14.91;73.53;93900.22;2968992;39;20051;-68
2021/05/13 01:16:31;;;;;;;23.92;17.80;;;;;;;14.99;73.39;93904.47;2965591;40;20058;-70
2021/05/13 01:18:35;;;;;;;24.25;16.13;;;;;;;15.01;73.27;93905.06;2971248;39;20067;-70
2021/05/13 01:20:37;;;;;;;23.27;15.73;;;;;;;15.01;73.37;93908.50;2970892;40;20427;-69
2021/05/13 01:22:39;;;;;;;23.10;16.80;;;;;;;15.06;72.60;93902.63;2970579;39;20048;-70
2021/05/13 01:24:42;;;;;;;22.98;16.05;;;;;;;15.04;72.61;93908.13;2968798;39;20072;-69
2021/05/13 01:26:45;;;;;;;29.38;18.05;;;;;;;14.97;73.15;93901.22;2973582;39;20350;-70
2021/05/13 01:28:47;;;;;;;24.02;17.20;;;;;;;14.93;73.20;93901.63;2967697;39;20048;-69
2021/05/13 01:30:50;;;;;;;21.73;17.08;;;;;;;14.77;74.22;93901.25;2977602;39;20051;-81
2021/05/13 01:32:52;;;;;;;21.75;16.08;;;;;;;14.57;74.41;93899.44;2972071;40;20094;-84
2021/05/13 01:34:54;;;;;;;27.67;20.05;;;;;;;13.73;77.58;93904.13;2975854;39;20055;-82
2021/05/13 01:36:56;;;;;;;28.38;19.25;;;;;;;13.02;80.67;93900.94;2970625;39;20076;-82
2021/05/13 01:38:59;;;;;;;26.45;19.52;;;;;;;13.04;80.99;93902.38;2965986;39;20297;-70
2021/05/13 01:41:02;;;;;;;27.20;18.80;;;;;;;12.92;81.52;93893.41;2972637;39;20315;-69
2021/05/13 01:43:04;;;;;;;28.27;19.30;;;;;;;13.08;81.42;93892.28;2969911;40;20358;-69
2021/05/13 01:45:06;;;;;;;25.48;19.08;;;;;;;13.36;80.00;93891.44;2969187;39;20120;-70
2021/05/13 01:47:08;;;;;;;26.35;17.92;;;;;;;13.62;78.84;93882.84;2969677;39;20052;-70
2021/05/13 01:49:37;;;;;;;28.27;17.77;;;;;;;13.93;77.94;93890.22;2969410;39;20056;-69
2021/05/13 01:51:39;;;;;;;25.20;14.88;;;;;;;14.11;76.97;93892.25;2969695;39;20036;-70
2021/05/13 01:53:42;;;;;;;23.75;14.32;;;;;;;14.26;75.62;93878.91;2967043;40;20055;-70
2021/05/13 01:55:44;;;;;;;23.10;14.73;;;;;;;14.40;75.28;93879.75;2969376;39;20059;-70
2021/05/13 01:57:45;;;;;;;22.35;14.70;;;;;;;14.50;74.74;93882.78;2967700;39;20060;-70
2021/05/13 01:59:47;;;;;;;23.85;15.05;;;;;;;14.59;74.21;93884.22;2970775;39;20080;-69
2021/05/13 02:01:48;;;;;;;20.45;13.95;;;;;;;14.69;73.63;93887.28;2971896;39;20160;-69
2021/05/13 02:03:50;;;;;;;19.50;13.77;;;;;;;14.74;72.98;93886.66;2974600;39;20090;-69
2021/05/13 02:05:53;;;;;;;20.17;13.35;;;;;;;14.76;73.18;93883.81;2972353;39;20329;-69
2021/05/13 02:07:55;;;;;;;20.60;13.65;;;;;;;14.74;73.24;93881.38;2968994;39;20151;-70
2021/05/13 02:09:57;;;;;;;19.52;12.73;;;;;;;14.80;73.36;93891.13;2968194;39;20056;-71
2021/05/13 02:11:59;;;;;;;20.25;12.20;;;;;;;14.84;72.92;93880.94;2966966;40;20056;-69
2021/05/13 02:14:01;;;;;;;19.48;12.60;;;;;;;14.89;72.76;93881.97;2967498;39;20048;-69
2021/05/13 02:16:03;;;;;;;23.23;13.80;;;;;;;14.83;72.02;93879.34;2972629;39;20358;-70
2021/05/13 02:18:06;;;;;;;17.65;11.75;;;;;;;14.88;71.94;93879.53;2968568;39;20235;-70
2021/05/13 02:20:10;;;;;;;19.90;12.65;;;;;;;14.87;71.79;93884.00;2967568;39;20052;-71
2021/05/13 02:22:12;;;;;;;20.60;12.70;;;;;;;14.91;72.08;93879.13;2976200;39;20054;-70
2021/05/13 02:24:14;;;;;;;18.30;12.55;;;;;;;14.91;71.64;93882.56;2967106;40;20415;-71
2021/05/13 02:26:19;;;;;;;17.70;12.95;;;;;;;14.98;71.51;93887.84;2968451;39;20055;-71
2021/05/13 02:28:21;;;;;;;19.20;12.60;;;;;;;15.00;71.30;93885.81;2971048;39;20141;-70
2021/05/13 02:30:23;;;;;;;20.08;13.30;;;;;;;14.99;71.26;93881.53;2968279;39;20056;-70
2021/05/13 02:32:25;;;;;;;18.83;12.45;;;;;;;15.00;71.16;93880.53;2971612;39;20052;-71
2021/05/13 02:34:27;;;;;;;21.50;13.60;;;;;;;15.02;71.53;93882.97;2970574;39;20353;-69
2021/05/13 02:36:28;;;;;;;22.15;13.15;;;;;;;15.04;71.48;93886.22;2969145;39;20045;-70
2021/05/13 02:38:30;;;;;;;20.23;13.88;;;;;;;15.03;71.20;93880.09;2967179;39;20060;-70
2021/05/13 02:40:32;;;;;;;20.60;13.52;;;;;;;15.04;71.18;93884.38;2970417;40;20064;-73
2021/05/13 02:42:34;;;;;;;23.10;13.63;;;;;;;15.07;70.70;93875.22;2967750;40;20496;-70
2021/05/13 02:44:36;;;;;;;20.73;13.77;;;;;;;15.07;70.30;93886.59;2968830;39;20083;-69
2021/05/13 02:46:38;;;;;;;19.30;13.70;;;;;;;15.08;70.02;93885.59;2968127;39;20074;-70
2021/05/13 02:48:39;;;;;;;20.50;14.25;;;;;;;15.03;69.84;93880.09;2972823;39;20390;-83
2021/05/13 02:50:41;;;;;;;29.00;14.23;;;;;;;15.04;69.75;93879.09;2978822;39;20413;-81
2021/05/13 02:52:43;;;;;;;21.00;14.30;;;;;;;15.03;69.94;93885.38;2974767;40;20061;-83
2021/05/13 02:54:45;;;;;;;20.38;13.02;;;;;;;15.00;70.09;93872.63;2977893;39;20070;-83
2021/05/13 02:56:46;;;;;;;17.02;12.48;;;;;;;14.97;70.16;93870.41;2982628;39;20080;-83
2021/05/13 02:58:49;;;;;;;19.30;12.60;;;;;;;14.99;70.09;93878.09;2978313;39;20079;-83
2021/05/13 03:01:04;;;;;;;17.48;12.07;;;;;;;14.96;70.28;93881.94;2972582;40;20089;-82
2021/05/13 03:03:06;;;;;;;17.75;12.00;;;;;;;14.97;70.20;93885.38;2978753;39;20137;-81
2021/05/13 03:05:08;;;;;;;18.02;13.05;;;;;;;14.94;70.14;93883.97;2977643;39;20139;-81
2021/05/13 03:07:13;;;;;;;19.77;13.63;;;;;;;14.95;69.95;93882.97;2974655;39;20409;-81
2021/05/13 03:09:19;;;;;;;17.65;12.20;;;;;;;14.92;70.18;93878.91;2970516;39;20059;-84
2021/05/13 03:11:22;;;;;;;17.70;12.45;;;;;;;14.91;69.94;93879.13;2976849;39;20650;-84
2021/05/13 03:13:26;;;;;;;18.17;13.23;;;;;;;14.91;70.19;93876.50;2976794;39;20056;-82
2021/05/13 03:15:28;;;;;;;;;;;;;;;14.90;70.30;93890.69;2974952;39;20056;-82
2021/05/13 03:17:30;;;;;;;18.80;12.90;;;;;;;14.88;70.36;93890.06;2970771;39;20224;-84
2021/05/13 03:19:40;;;;;;;19.33;12.63;;;;;;;14.89;70.00;93894.34;2972962;40;20445;-84
2021/05/13 03:21:44;;;;;;;18.77;12.82;;;;;;;14.89;70.13;93894.34;2976173;39;20428;-83
2021/05/13 03:25:56;;;;;;;18.17;12.95;;;;;;;14.83;70.65;93879.34;2972505;39;20088;-84
2021/05/13 03:28:08;;;;;;;18.40;12.82;;;;;;;14.82;70.46;93878.53;2978014;39;20071;-83
2021/05/13 03:30:10;;;;;;;19.70;11.77;;;;;;;14.87;70.73;93877.91;2970647;39;20056;-83
2021/05/13 03:32:12;;;;;;;19.20;13.03;;;;;;;14.86;70.74;93884.19;2968631;40;20106;-85
2021/05/13 03:34:14;;;;;;;20.55;12.60;;;;;;;14.83;70.60;93876.69;2972213;39;20286;-84
2021/05/13 03:36:16;;;;;;;18.45;12.88;;;;;;;14.82;70.65;93880.34;2974661;39;20534;-85
2021/05/13 03:38:18;;;;;;;19.42;13.00;;;;;;;14.80;71.03;93879.72;2973941;40;20063;-83
2021/05/13 03:40:20;;;;;;;18.42;12.75;;;;;;;14.80;70.65;93882.38;2973150;39;20028;-82
2021/05/13 03:42:22;;;;;;;18.42;12.13;;;;;;;14.79;70.53;93893.94;2979950;39;20053;-83
2021/05/13 03:44:24;;;;;;;18.50;13.18;;;;;;;14.75;70.97;93893.53;2972648;39;20071;-83
2021/05/13 03:46:26;;;;;;;18.63;13.27;;;;;;;14.75;70.60;93890.91;2968212;40;20091;-83
2021/05/13 03:48:27;;;;;;;18.48;12.43;;;;;;;14.78;70.75;93890.50;2969037;40;20028;-81
2021/05/13 03:50:31;;;;;;;18.90;12.23;;;;;;;14.80;70.99;93890.28;2986678;39;20047;-85
2021/05/13 03:52:33;;;;;;;;;;;;;;;14.80;70.82;93896.38;2968488;40;20516;-84
2021/05/13 03:54:34;;;;;;;17.60;12.32;;;;;;;14.77;70.62;93895.97;2972696;39;19948;-83
2021/05/13 03:56:36;;;;;;;17.45;11.40;;;;;;;14.77;70.83;93895.97;2976888;40;20095;-82
2021/05/13 03:58:43;;;;;;;17.33;11.85;;;;;;;14.67;70.83;93893.72;2984774;39;20059;-82
2021/05/13 04:03:15;;;;;;;18.48;12.10;;;;;;;14.67;71.74;93897.22;2970120;40;20040;-83
2021/05/13 04:05:17;;;;;;;19.17;11.73;;;;;;;14.71;71.69;93893.16;2976924;39;20477;-84
2021/05/13 04:07:19;;;;;;;16.52;10.48;;;;;;;14.70;71.17;93891.50;2980148;39;20113;-83
2021/05/13 04:09:21;;;;;;;17.83;10.52;;;;;;;14.76;70.60;93887.25;2977161;39;20104;-82
2021/05/13 04:11:22;;;;;;;14.15;10.45;;;;;;;14.84;70.47;93881.78;2981722;39;20080;-82
2021/05/13 04:13:25;;;;;;;14.18;9.90;;;;;;;14.91;70.06;93881.78;2976125;40;20097;-82
2021/05/13 04:15:27;;;;;;;16.70;10.90;;;;;;;14.95;70.21;93883.78;2980612;39;20056;-82
2021/05/13 04:17:28;;;;;;;15.75;9.93;;;;;;;15.01;70.02;93886.59;2975016;39;20059;-82
2021/05/13 04:19:30;;;;;;;16.10;10.10;;;;;;;14.98;69.57;93887.03;2976557;39;20053;-84
2021/05/13 04:21:32;;;;;;;16.40;10.98;;;;;;;15.02;69.69;93877.69;2983451;39;20368;-83
2021/05/13 04:23:34;;;;;;;19.88;10.43;;;;;;;15.05;69.35;93878.06;2977082;40;20048;-82
2021/05/13 04:25:36;;;;;;;14.35;8.98;;;;;;;15.11;68.96;93881.72;2979915;39;20051;-84
2021/05/13 04:27:38;;;;;;;13.75;9.18;;;;;;;15.09;67.93;93887.19;2980376;39;20451;-85
2021/05/13 04:29:39;;;;;;;15.18;9.88;;;;;;;14.92;68.55;93886.81;2974469;39;20045;-83
2021/05/13 04:31:41;;;;;;;13.73;9.43;;;;;;;14.88;68.90;93892.72;2977535;39;20282;-82
2021/05/13 04:33:43;;;;;;;15.70;9.80;;;;;;;14.88;68.85;93887.44;2971959;39;20048;-84
2021/05/13 04:35:45;;;;;;;15.93;10.10;;;;;;;14.91;68.56;93889.69;2977026;39;20144;-85
2021/05/13 04:37:46;;;;;;;12.75;9.68;;;;;;;14.93;68.53;93892.91;2973046;40;20147;-83
2021/05/13 04:39:48;;;;;;;17.50;10.38;;;;;;;14.64;68.72;93887.06;2978429;39;20052;-83
2021/05/13 04:41:51;;;;;;;13.15;9.60;;;;;;;14.58;69.58;93894.97;2973800;39;20052;-81
2021/05/13 04:43:53;;;;;;;12.43;9.73;;;;;;;14.55;69.69;93885.66;2975111;39;20060;-83
2021/05/13 04:45:54;;;;;;;17.25;10.85;;;;;;;14.52;69.39;93886.84;2969180;40;20051;-71
2021/05/13 04:50:01;;;;;;;14.00;9.00;;;;;;;14.73;68.97;93885.84;2968788;39;20157;-71
2021/05/13 04:52:03;;;;;;;13.50;9.23;;;;;;;14.89;68.70;93887.25;2967942;39;20085;-71
2021/05/13 04:54:05;;;;;;;16.83;10.45;;;;;;;15.12;68.09;93878.88;2968315;39;20415;-70
2021/05/13 04:56:07;;;;;;;13.38;9.43;;;;;;;15.27;67.72;93880.44;2967222;40;20385;-70
2021/05/13 04:58:09;;;;;;;14.68;10.02;;;;;;;15.45;66.87;93877.97;2968757;39;20176;-69
2021/05/13 05:00:11;;;;;;;15.63;10.13;;;;;;;15.64;66.41;93878.91;2967026;40;20092;-70
2021/05/13 05:02:13;;;;;;;13.50;10.10;;;;;;;15.77;66.29;93884.16;2966034;40;20057;-71
2021/05/13 05:04:15;;;;;;;14.00;10.13;;;;;;;15.89;65.92;93879.00;2968411;39;20317;-71
2021/05/13 05:06:17;;;;;;;15.77;10.43;;;;;;;15.85;65.54;93879.63;2968761;39;20040;-70
2021/05/13 05:08:18;;;;;;;13.63;10.10;;;;;;;15.62;65.97;93880.94;2971696;39;20144;-72
2021/05/13 05:10:20;;;;;;;17.05;11.02;;;;;;;15.33;66.61;93876.97;2969862;39;20048;-71
2021/05/13 05:12:22;;;;;;;22.42;11.32;;;;;;;15.24;66.98;93880.88;2967543;39;20099;-71
2021/05/13 05:14:24;;;;;;;15.20;11.18;;;;;;;15.39;66.85;93884.06;2965985;40;20105;-70
2021/05/13 05:16:26;;;;;;;15.57;10.40;;;;;;;15.57;66.70;93878.09;2959429;40;20108;-71
2021/05/13 05:18:27;;;;;;;15.05;11.05;;;;;;;15.53;66.66;93882.19;2968274;40;20052;-71
2021/05/13 05:20:30;;;;;;;15.00;10.77;;;;;;;15.57;65.91;93886.03;2970919;39;20066;-69
2021/05/13 05:22:33;;;;;;;14.23;10.85;;;;;;;15.60;65.24;93890.09;2967987;39;20056;-71
2021/05/13 05:24:35;;;;;;;15.80;10.93;;;;;;;15.67;65.25;93885.59;2967113;40;20133;-73
2021/05/13 05:26:36;;;;;;;14.80;10.73;;;;;;;15.83;65.31;93892.22;2966465;40;20056;-71
2021/05/13 05:28:38;;;;;;;15.27;10.40;;;;;;;15.90;63.46;93888.56;2973297;39;20448;-71
2021/05/13 05:30:40;;;;;;;14.45;10.05;;;;;;;15.84;64.29;93891.22;2973241;39;20059;-70
2021/05/13 05:32:42;;;;;;;14.23;10.27;;;;;;;15.93;64.52;93882.84;2966423;40;20053;-85
2021/05/13 05:34:44;;;;;;;15.18;10.55;;;;;;;16.04;64.22;93880.53;2968682;40;20080;-84
2021/05/13 05:36:46;;;;;;;14.82;11.07;;;;;;;16.09;63.64;93878.06;2975004;40;20332;-84
2021/05/13 05:38:47;;;;;;;17.48;11.45;;;;;;;16.10;63.50;93884.97;2966414;40;20062;-69
2021/05/13 05:40:49;;;;;;;17.15;11.65;;;;;;;15.97;64.83;93885.88;2974026;39;20075;-72
2021/05/13 05:42:51;;;;;;;13.82;10.48;;;;;;;16.05;64.52;93885.63;2970932;39;20085;-70
2021/05/13 05:44:53;;;;;;;17.80;11.52;;;;;;;16.17;64.64;93891.84;2970698;39;20398;-68
2021/05/13 05:46:55;;;;;;;18.05;11.13;;;;;;;16.27;64.23;93880.81;2968482;39;20037;-72
2021/05/13 05:48:58;;;;;;;16.05;11.45;;;;;;;16.22;64.94;93890.38;2970629;40;20099;-85
2021/05/13 05:50:59;;;;;;;16.42;12.65;;;;;;;15.97;65.11;93891.97;2977710;39;20060;-83
2021/05/13 05:53:02;;;;;;;17.80;12.57;;;;;;;16.16;65.26;93894.72;2975755;40;20059;-83
2021/05/13 05:55:08;;;;;;;15.15;11.40;;;;;;;16.32;65.33;93893.38;2972359;39;20089;-84
2021/05/13 05:57:13;;;;;;;20.88;14.77;;;;;;;16.33;65.46;93892.38;2970012;39;20051;-85
2021/05/13 05:59:15;;;;;;;22.77;15.63;;;;;;;16.29;65.79;93896.44;2976196;39;20055;-82
2021/05/13 06:01:16;;;;;;;17.27;13.52;;;;;;;15.83;67.03;93890.44;2977151;39;20044;-84
2021/05/13 06:03:18;;;;;;;21.65;14.55;;;;;;;15.61;68.40;93896.97;2975597;39;20052;-83
2021/05/13 06:05:20;;;;;;;21.65;13.65;;;;;;;15.35;69.71;93890.78;2979145;39;20063;-82
2021/05/13 06:07:22;;;;;;;20.77;15.02;;;;;;;15.28;69.49;93896.06;2978153;39;20044;-83
2021/05/13 06:09:24;;;;;;;22.48;15.85;;;;;;;14.88;70.96;93892.72;2976660;40;20059;-84
2021/05/13 06:11:26;;;;;;;22.30;16.55;;;;;;;14.80;71.64;93896.38;2976775;39;20051;-82
2021/05/13 06:13:27;;;;;;;23.60;15.07;;;;;;;14.73;72.22;93890.28;2976185;39;20055;-83
2021/05/13 06:15:29;;;;;;;20.98;16.15;;;;;;;15.19;71.44;93883.34;2969129;40;20108;-86
2021/05/13 06:17:31;;;;;;;22.10;17.42;;;;;;;15.52;70.25;93888.50;2979288;39;20063;-85
2021/05/13 06:19:34;;;;;;;21.45;16.70;;;;;;;15.81;69.73;93887.19;2975868;39;20082;-84
2021/05/13 06:21:39;;;;;;;24.50;17.73;;;;;;;15.62;68.65;93890.69;2971239;39;20131;-83
2021/05/13 06:23:46;;;;;;;22.92;17.80;;;;;;;15.27;69.49;93891.84;2975875;39;20367;-83
2021/05/13 06:25:48;;;;;;;25.77;18.40;;;;;;;14.65;71.71;93893.97;2969876;40;20087;-82
2021/05/13 06:27:50;;;;;;;24.92;17.75;;;;;;;14.89;71.79;93891.72;2970319;40;20658;-83
2021/05/13 06:29:52;;;;;;;27.92;19.58;;;;;;;15.18;70.68;93890.41;2968054;40;20075;-81
2021/05/13 06:31:55;;;;;;;25.85;19.25;;;;;;;15.40;69.65;93884.88;2969976;40;20436;-87
2021/05/13 06:33:57;;;;;;;24.17;18.15;;;;;;;15.63;69.26;93884.38;2970731;39;20106;-82
2021/05/13 06:35:59;;;;;;;27.45;19.77;;;;;;;15.87;68.42;93882.88;2973092;39;20068;-85
2021/05/13 06:38:01;;;;;;;24.55;18.63;;;;;;;16.03;68.46;93889.50;2977401;39;20056;-83
2021/05/13 06:40:04;;;;;;;24.05;18.23;;;;;;;15.91;67.25;93889.34;2977287;39;20053;-82
2021/05/13 06:42:07;;;;;;;26.83;19.48;;;;;;;15.72;67.72;93883.16;2978856;39;20044;-84
2021/05/13 06:44:09;;;;;;;27.95;19.77;;;;;;;15.56;67.75;93884.41;2978208;39;20148;-84
2021/05/13 06:46:12;;;;;;;25.95;19.40;;;;;;;15.70;67.58;93885.16;2979364;39;20085;-85
2021/05/13 06:48:14;;;;;;;25.73;19.35;;;;;;;15.63;67.93;93887.03;2978508;40;20133;-84
2021/05/13 06:50:15;;;;;;;21.17;17.63;;;;;;;15.95;67.21;93887.91;2981818;39;20058;-84
2021/05/13 06:52:21;;;;;;;23.02;18.73;;;;;;;16.26;66.07;93894.22;2979625;39;20052;-86
2021/05/13 06:54:23;;;;;;;23.83;17.45;;;;;;;16.36;65.20;93892.72;2979144;39;20438;-85
2021/05/13 06:56:25;;;;;;;25.60;17.40;;;;;;;16.49;65.18;93893.66;2978981;39;20048;-85
2021/05/13 06:58:27;;;;;;;26.60;19.98;;;;;;;16.34;65.09;93894.78;2984509;39;20495;-85
2021/05/13 07:00:29;;;;;;;27.33;18.65;;;;;;;15.85;66.74;93890.19;2984345;39;20093;-83
2021/05/13 07:02:35;;;;;;;25.95;19.75;;;;;;;15.31;68.18;93895.66;2977051;39;20048;-85
2021/05/13 07:04:37;;;;;;;27.58;19.38;;;;;;;15.52;68.64;93888.50;2978511;39;20063;-86
2021/05/13 07:06:39;;;;;;;25.58;17.90;;;;;;;15.90;66.90;93885.91;2975067;39;20051;-82
2021/05/13 07:08:44;;;;;;;25.27;19.60;;;;;;;16.15;65.62;93893.91;2970931;39;20067;-82
2021/05/13 07:10:46;;;;;;;26.63;18.73;;;;;;;16.48;65.49;93882.28;2964967;40;20154;-83
2021/05/13 07:12:47;;;;;;;22.02;19.10;;;;;;;16.59;63.73;93880.78;2974764;39;20368;-83
2021/05/13 07:15:05;;;;;;;25.63;17.80;;;;;;;16.52;65.03;93869.41;2974491;39;20054;-82
2021/05/13 07:17:07;;;;;;;25.67;18.52;;;;;;;16.73;64.89;93873.53;2969537;40;20429;-83
2021/05/13 07:19:09;;;;;;;26.33;19.20;;;;;;;16.47;64.31;93879.84;2977548;39;20060;-85
2021/05/13 07:21:12;;;;;;;26.38;18.67;;;;;;;16.61;64.60;93880.56;2962698;40;20060;-83
2021/05/13 07:23:14;;;;;;;25.60;17.67;;;;;;;16.86;64.04;93870.78;2972749;39;20135;-84
2021/05/13 07:25:16;;;;;;;23.42;17.75;;;;;;;17.17;63.19;93864.59;2977706;39;20081;-83
2021/05/13 07:27:20;;;;;;;22.60;17.25;;;;;;;17.17;62.46;93869.88;2981880;39;20166;-83
2021/05/13 07:29:22;;;;;;;;;;;;;;;17.35;61.96;93866.41;2979051;39;20052;-70
2021/05/13 07:31:24;;;;;;;23.73;16.85;;;;;;;17.52;61.21;93865.84;2967840;40;19936;-71
2021/05/13 07:33:26;;;;;;;23.00;17.20;;;;;;;17.24;61.52;93864.50;2972754;39;20398;-71
2021/05/13 07:35:28;;;;;;;25.88;19.42;;;;;;;16.66;63.71;93868.28;2977134;39;20432;-84
2021/05/13 07:37:30;;;;;;;23.20;17.90;;;;;;;16.67;64.23;93869.94;2979239;39;20425;-84
2021/05/13 07:39:32;;;;;;;25.77;19.20;;;;;;;16.97;63.40;93859.50;2970690;40;20056;-84
2021/05/13 07:41:33;;;;;;;29.17;18.90;;;;;;;17.36;62.48;93861.97;2976948;39;20071;-83
2021/05/13 07:43:39;;;;;;;24.83;18.92;;;;;;;17.64;60.89;93860.59;2977940;39;20157;-85
2021/05/13 07:45:48;;;;;;;25.50;19.02;;;;;;;17.60;59.86;93857.59;2971317;39;20404;-83
2021/05/13 07:47:54;;;;;;;23.25;18.05;;;;;;;17.31;61.43;93861.78;2975354;39;20080;-86
2021/05/13 07:49:56;;;;;;;21.65;16.80;;;;;;;17.51;60.98;93858.91;2980072;39;20048;-83
2021/05/13 07:52:00;;;;;;;22.55;16.70;;;;;;;17.70;60.53;93851.75;2967408;40;20052;-86
2021/05/13 07:54:03;;;;;;;22.58;16.63;;;;;;;17.89;59.64;93848.06;2975505;40;20041;-84
2021/05/13 07:56:04;;;;;;;24.30;17.48;;;;;;;17.87;59.60;93850.13;2969599;40;20138;-85
2021/05/13 07:58:06;;;;;;;23.17;17.00;;;;;;;17.90;59.69;93849.69;2974696;39;20351;-84
2021/05/13 08:00:09;;;;;;;26.83;18.60;;;;;;;17.29;61.22;93850.63;2972314;39;20045;-83
2021/05/13 08:02:11;;;;;;;28.95;18.65;;;;;;;17.50;60.80;93846.72;2978266;40;20053;-82
2021/05/13 08:04:13;;;;;;;23.48;17.60;;;;;;;17.66;60.55;93854.06;2974200;40;20040;-82
2021/05/13 08:06:14;;;;;;;24.33;18.58;;;;;;;17.51;60.12;93849.16;2971589;39;20104;-83
2021/05/13 08:08:16;;;;;;;25.55;17.58;;;;;;;17.46;60.48;93848.19;2977564;39;20370;-83
2021/05/13 08:10:18;;;;;;;25.17;17.23;;;;;;;17.61;59.57;93843.31;2969735;39;20068;-83
2021/05/13 08:12:20;;;;;;;25.48;16.40;;;;;;;17.72;59.88;93847.03;2982955;39;20447;-83
2021/05/13 08:14:24;;;;;;;22.65;17.15;;;;;;;17.88;59.49;93843.81;2973429;40;20078;-84
2021/05/13 08:16:28;;;;;;;30.98;17.45;;;;;;;18.00;58.23;93843.84;2966209;40;20106;-84
2021/05/13 08:18:32;;;;;;;20.20;15.30;;;;;;;18.13;59.13;93841.00;2974731;39;20133;-84
2021/05/13 08:20:34;;;;;;;23.10;16.77;;;;;;;17.74;58.62;93844.97;2972191;39;20052;-83
2021/05/13 08:22:36;;;;;;;21.08;15.80;;;;;;;17.43;59.65;93840.69;2972614;39;20403;-84
2021/05/13 08:24:38;;;;;;;26.90;17.90;;;;;;;17.48;60.18;93835.53;2982396;39;20142;-83
2021/05/13 08:26:46;;;;;;;21.40;15.90;;;;;;;17.63;60.27;93833.28;2971554;39;20147;-86
2021/05/13 08:28:57;;;;;;;23.42;15.52;;;;;;;17.74;59.45;93826.44;2962625;40;20106;-82
2021/05/13 08:30:59;;;;;;;22.80;15.38;;;;;;;17.56;58.43;93825.44;2974617;39;20071;-84
2021/05/13 08:33:01;;;;;;;18.52;14.77;;;;;;;17.55;58.37;93818.53;2974314;39;20377;-84
2021/05/13 08:35:03;;;;;;;19.40;12.27;;;;;;;17.92;55.76;93822.97;2971415;39;20306;-83
2021/05/13 08:37:05;;;;;;;18.42;13.45;;;;;;;18.16;56.13;93814.03;2969329;40;20126;-82
2021/05/13 08:39:06;;;;;;;21.70;14.27;;;;;;;18.16;55.20;93807.94;2976229;39;20037;-84
2021/05/13 08:41:10;;;;;;;15.48;12.00;;;;;;;18.51;54.42;93804.53;2974795;40;20145;-83
2021/05/13 08:43:43;;;;;;;17.48;11.82;;;;;;;18.79;53.32;93796.69;2967242;40;20179;-84
2021/05/13 08:45:45;;;;;;;13.80;10.82;;;;;;;19.08;52.13;93788.84;2966052;40;20353;-84
2021/05/13 08:47:47;;;;;;;19.58;12.50;;;;;;;19.03;52.41;93796.69;2973662;39;20044;-83
2021/05/13 08:49:49;;;;;;;17.52;13.38;;;;;;;18.94;52.84;93798.88;2975708;39;20333;-82
2021/05/13 08:51:51;;;;;;;17.30;12.85;;;;;;;18.17;54.79;93806.88;2985821;39;20124;-83
2021/05/13 08:53:57;;;;;;;17.75;13.90;;;;;;;17.96;56.36;93792.31;2976847;39;20051;-85
2021/05/13 08:55:59;;;;;;;18.50;12.80;;;;;;;18.30;56.50;93797.91;2968056;40;20052;-84
2021/05/13 08:58:06;;;;;;;20.80;13.55;;;;;;;18.24;55.03;93799.66;2971788;39;20064;-84
2021/05/13 09:00:12;;;;;;;17.00;12.63;;;;;;;18.58;54.00;93799.91;2966673;40;20093;-83
2021/05/13 09:02:15;;;;;;;16.25;11.15;;;;;;;18.82;53.02;93798.06;2973451;39;20064;-82
2021/05/13 09:04:17;;;;;;;17.00;11.57;;;;;;;19.11;52.60;93791.00;2965813;40;20063;-70
2021/05/13 09:06:33;;;;;;;14.45;10.73;;;;;;;19.22;51.08;93795.50;2973179;39;20071;-70
2021/05/13 09:08:35;;;;;;;16.63;10.80;;;;;;;19.52;51.23;93791.03;2970178;39;20060;-71
2021/05/13 09:10:39;;;;;;;17.00;11.35;;;;;;;19.74;50.22;93799.16;2977134;39;20048;-72
2021/05/13 09:12:51;;;;;;;20.33;10.70;;;;;;;19.29;52.14;93800.66;2966880;39;20416;-70
2021/05/13 09:15:10;;;;;;;17.95;10.48;;;;;;;18.99;51.69;93800.84;2970298;40;20414;-71
2021/05/13 09:17:23;;;;;;;17.70;9.75;;;;;;;18.47;52.53;93796.22;2970990;39;20048;-68
2021/05/13 09:19:31;;;;;;;13.70;8.93;;;;;;;18.75;50.84;93782.25;2967564;40;20409;-73
2021/05/13 09:21:49;;;;;;;11.10;8.23;;;;;;;18.79;51.00;93788.75;2969937;39;20055;-71
2021/05/13 09:23:51;;;;;;;11.02;7.40;;;;;;;18.77;49.85;93782.03;2959807;40;20064;-70
2021/05/13 09:26:05;;;;;;;11.75;8.35;;;;;;;18.82;48.56;93790.94;2972204;39;20444;-70
2021/05/13 09:28:08;;;;;;;11.48;8.55;;;;;;;18.96;48.24;93780.88;2972510;39;20153;-70
2021/05/13 09:30:21;;;;;;;19.05;8.02;;;;;;;19.16;48.04;93780.50;2961495;40;20122;-72
2021/05/13 09:32:23;;;;;;;12.65;9.00;;;;;;;19.18;49.86;93778.41;2968767;39;20077;-71
2021/05/13 09:34:30;;;;;;;14.43;8.63;;;;;;;19.03;49.76;93764.81;2970432;39;20136;-69
2021/05/13 09:36:33;;;;;;;14.35;8.45;;;;;;;19.26;49.48;93771.13;2960674;40;20060;-71
2021/05/13 09:38:35;;;;;;;12.65;7.68;;;;;;;19.18;49.53;93765.13;2969364;39;20059;-69